Time;durP1;ratioP1;P1;durP2;ratioP2;P2;SDS_P1;SDS_P2;PMS_P1;PMS_P2;Temp;Humidity;BMP_temperature;BMP_pressure;BME280_temperature;BME280_humidity;BME280_pressure;Samples;Min_cycle;Max_cycle;Signal;HPM_P1;HPM_P2
2024/01/18 00:00:28;;;;;;;12.00;7.40;;;;;;;;;;109090;1252;57847;-71
2024/01/18 00:03:17;;;;;;;11.70;7.50;;;;;;;;;;109088;1253;59398;-69
2024/01/18 00:05:45;;;;;;;11.40;7.30;;;;;;;;;;109075;1253;58254;-70
2024/01/18 00:08:14;;;;;;;11.50;7.90;;;;;;;;;;109089;1254;58377;-70
2024/01/18 00:10:42;;;;;;;11.20;7.20;;;;;;;;;;109051;1252;59430;-71
2024/01/18 00:13:11;;;;;;;11.90;7.50;;;;;;;;;;109060;1253;58738;-72
2024/01/18 00:15:40;;;;;;;15.70;7.70;;;;;;;;;;109065;1254;57720;-72
2024/01/18 00:18:10;;;;;;;14.40;7.30;;;;;;;;;;109073;1254;59439;-71
2024/01/18 00:20:39;;;;;;;12.90;7.70;;;;;;;;;;109125;1253;58348;-72
2024/01/18 00:23:07;;;;;;;13.50;7.90;;;;;;;;;;109196;1254;57665;-70
2024/01/18 00:25:36;;;;;;;12.10;7.20;;;;;;;;;;109006;1252;58335;-70
2024/01/18 00:28:04;;;;;;;11.20;7.40;;;;;;;;;;109242;1253;57730;-69
2024/01/18 00:30:33;;;;;;;11.50;6.90;;;;;;;;;;109242;1252;58362;-70
2024/01/18 00:33:02;;;;;;;11.80;7.30;;;;;;;;;;109247;1254;58403;-70
2024/01/18 00:35:30;;;;;;;11.80;7.60;;;;;;;;;;109237;1252;58197;-71
2024/01/18 00:37:59;;;;;;;11.70;7.20;;;;;;;;;;109234;1252;57764;-70
2024/01/18 00:40:27;;;;;;;9.90;6.70;;;;;;;;;;109232;1254;57997;-70
2024/01/18 00:42:56;;;;;;;13.60;7.30;;;;;;;;;;109198;1252;58241;-70
2024/01/18 00:45:24;;;;;;;12.40;7.50;;;;;;;;;;109229;1252;58257;-70
2024/01/18 00:47:53;;;;;;;12.50;7.40;;;;;;;;;;109218;1254;58280;-70
2024/01/18 00:50:21;;;;;;;12.50;7.50;;;;;;;;;;109039;1252;58316;-70
2024/01/18 00:52:49;;;;;;;10.20;6.90;;;;;;;;;;109184;1254;57801;-69
2024/01/18 00:55:18;;;;;;;9.90;6.30;;;;;;;;;;109186;1253;57829;-70
2024/01/18 00:57:47;;;;;;;10.20;7.40;;;;;;;;;;109202;1254;58361;-70
2024/01/18 01:00:16;;;;;;;12.40;7.50;;;;;;;;;;109232;1253;58188;-70
2024/01/18 01:02:44;;;;;;;12.00;7.60;;;;;;;;;;109220;1252;59847;-70
2024/01/18 01:05:13;;;;;;;10.60;7.00;;;;;;;;;;109208;1254;57710;-70
2024/01/18 01:07:41;;;;;;;11.00;7.40;;;;;;;;;;109233;1252;58376;-71
2024/01/18 01:10:10;;;;;;;11.30;7.00;;;;;;;;;;109212;1254;58167;-70
2024/01/18 01:12:38;;;;;;;11.60;7.40;;;;;;;;;;109036;1254;58283;-70
2024/01/18 01:15:07;;;;;;;13.70;7.50;;;;;;;;;;109208;1254;58236;-70
2024/01/18 01:17:36;;;;;;;11.00;6.70;;;;;;;;;;109071;1253;59517;-72
2024/01/18 01:20:09;;;;;;;11.60;6.50;;;;;;;;;;109068;1254;58405;-69
2024/01/18 01:22:38;;;;;;;11.80;6.50;;;;;;;;;;109042;1254;58154;-71
2024/01/18 01:25:07;;;;;;;9.70;6.50;;;;;;;;;;109090;1254;59716;-70
2024/01/18 01:27:35;;;;;;;11.30;6.70;;;;;;;;;;109050;1254;57692;-70
2024/01/18 01:30:04;;;;;;;9.20;6.00;;;;;;;;;;109058;1254;57791;-70
2024/01/18 01:32:33;;;;;;;11.10;6.30;;;;;;;;;;108992;1254;57854;-70
2024/01/18 01:35:02;;;;;;;8.90;5.70;;;;;;;;;;109113;1254;58179;-70
2024/01/18 01:37:30;;;;;;;8.90;6.40;;;;;;;;;;109192;1252;58343;-70
2024/01/18 01:39:58;;;;;;;9.70;5.40;;;;;;;;;;109161;1254;58504;-69
2024/01/18 01:42:27;;;;;;;9.20;5.80;;;;;;;;;;109157;1254;57784;-70
2024/01/18 01:44:55;;;;;;;8.60;5.50;;;;;;;;;;108913;1254;58124;-70
2024/01/18 01:47:24;;;;;;;9.00;5.90;;;;;;;;;;109159;1254;58251;-70
2024/01/18 01:49:53;;;;;;;9.50;5.50;;;;;;;;;;109056;1252;58203;-70
2024/01/18 01:52:22;;;;;;;10.00;6.40;;;;;;;;;;108875;1252;57901;-71
2024/01/18 01:54:50;;;;;;;9.00;5.80;;;;;;;;;;109017;1254;58821;-72
2024/01/18 01:57:20;;;;;;;11.00;5.70;;;;;;;;;;108864;1254;58493;-71
2024/01/18 01:59:49;;;;;;;10.40;5.60;;;;;;;;;;108863;1257;57785;-72
2024/01/18 02:02:19;;;;;;;8.90;5.60;;;;;;;;;;109063;1252;58643;-72
2024/01/18 02:04:47;;;;;;;8.80;5.60;;;;;;;;;;109050;1254;58287;-71
2024/01/18 02:07:16;;;;;;;9.40;5.20;;;;;;;;;;109057;1254;58348;-71
2024/01/18 02:09:46;;;;;;;8.60;5.30;;;;;;;;;;108905;1254;58379;-71
2024/01/18 02:12:15;;;;;;;10.00;5.90;;;;;;;;;;108981;1254;58248;-72
2024/01/18 02:14:44;;;;;;;9.50;5.90;;;;;;;;;;109009;1253;58389;-74
2024/01/18 02:17:13;;;;;;;9.90;5.90;;;;;;;;;;109035;1253;58286;-71
2024/01/18 02:19:41;;;;;;;10.60;6.20;;;;;;;;;;108978;1252;58388;-71
2024/01/18 02:22:11;;;;;;;8.90;6.00;;;;;;;;;;108961;1253;58223;-71
2024/01/18 02:24:50;;;;;;;9.70;5.90;;;;;;;;;;108998;1254;58236;-71
2024/01/18 02:27:20;;;;;;;10.20;5.80;;;;;;;;;;109003;1254;58123;-71
2024/01/18 02:29:48;;;;;;;8.90;5.70;;;;;;;;;;109201;1253;58242;-71
2024/01/18 02:32:17;;;;;;;9.00;5.70;;;;;;;;;;109069;1253;58884;-71
2024/01/18 02:34:45;;;;;;;11.50;6.50;;;;;;;;;;109021;1252;57809;-74
2024/01/18 02:37:14;;;;;;;10.50;6.20;;;;;;;;;;108987;1254;57808;-71
2024/01/18 02:39:42;;;;;;;12.20;6.50;;;;;;;;;;108979;1252;59430;-71
2024/01/18 02:42:11;;;;;;;8.50;5.90;;;;;;;;;;108826;1254;57748;-71
2024/01/18 02:44:41;;;;;;;9.20;6.00;;;;;;;;;;108851;1252;58224;-71
2024/01/18 02:47:09;;;;;;;12.30;6.50;;;;;;;;;;108828;1252;59458;-72
2024/01/18 02:49:38;;;;;;;9.90;6.20;;;;;;;;;;109020;1252;57738;-71
2024/01/18 02:52:06;;;;;;;10.10;6.60;;;;;;;;;;109006;1252;57810;-71
2024/01/18 02:54:35;;;;;;;9.80;6.60;;;;;;;;;;108990;1252;57822;-72
2024/01/18 02:57:04;;;;;;;11.50;6.40;;;;;;;;;;108985;1252;58184;-71
2024/01/18 02:59:32;;;;;;;9.60;5.80;;;;;;;;;;109032;1254;57858;-72
2024/01/18 03:02:01;;;;;;;8.10;5.90;;;;;;;;;;109054;1252;58276;-73
2024/01/18 03:04:29;;;;;;;10.30;6.30;;;;;;;;;;109052;1254;57776;-70
2024/01/18 03:06:58;;;;;;;8.70;6.10;;;;;;;;;;109045;1252;58255;-71
2024/01/18 03:09:26;;;;;;;10.00;5.60;;;;;;;;;;109032;1254;58298;-71
2024/01/18 03:11:55;;;;;;;10.70;6.10;;;;;;;;;;108872;1256;57811;-69
2024/01/18 03:14:23;;;;;;;10.20;6.30;;;;;;;;;;109196;1254;57788;-70
2024/01/18 03:16:51;;;;;;;9.40;6.40;;;;;;;;;;109204;1252;59440;-71
2024/01/18 03:19:20;;;;;;;10.40;6.70;;;;;;;;;;109204;1254;58334;-70
2024/01/18 03:21:48;;;;;;;9.70;6.00;;;;;;;;;;109244;1252;58228;-73
2024/01/18 03:24:17;;;;;;;9.50;6.20;;;;;;;;;;109199;1254;58194;-70
2024/01/18 03:26:45;;;;;;;11.90;6.20;;;;;;;;;;109048;1252;58362;-71
2024/01/18 03:29:14;;;;;;;7.70;6.10;;;;;;;;;;109210;1252;57718;-70
2024/01/18 03:31:43;;;;;;;11.00;6.30;;;;;;;;;;109043;1256;59440;-70
2024/01/18 03:34:12;;;;;;;10.90;6.10;;;;;;;;;;109193;1253;58240;-73
2024/01/18 03:36:40;;;;;;;13.60;6.90;;;;;;;;;;109185;1252;57691;-71
2024/01/18 03:39:09;;;;;;;11.10;6.30;;;;;;;;;;109168;1254;58272;-70
2024/01/18 03:41:37;;;;;;;14.70;6.50;;;;;;;;;;109208;1254;57752;-70
2024/01/18 03:44:06;;;;;;;9.80;6.40;;;;;;;;;;109178;1252;58261;-70
2024/01/18 03:46:34;;;;;;;8.70;6.10;;;;;;;;;;109197;1252;59438;-70
2024/01/18 03:49:03;;;;;;;11.10;7.00;;;;;;;;;;109030;1252;58210;-71
2024/01/18 03:51:31;;;;;;;9.00;6.00;;;;;;;;;;109028;1252;58359;-70
2024/01/18 03:54:00;;;;;;;9.90;5.90;;;;;;;;;;109205;1252;58315;-70
2024/01/18 03:56:28;;;;;;;9.70;6.50;;;;;;;;;;109145;1253;58336;-70
2024/01/18 03:58:57;;;;;;;10.80;6.30;;;;;;;;;;109113;1254;57671;-71
2024/01/18 04:01:29;;;;;;;9.50;6.50;;;;;;;;;;109119;1254;58791;-71
2024/01/18 04:04:02;;;;;;;13.00;6.70;;;;;;;;;;108951;1253;57727;-70
2024/01/18 04:06:30;;;;;;;10.10;6.50;;;;;;;;;;109130;1253;58274;-70
2024/01/18 04:08:59;;;;;;;11.20;6.40;;;;;;;;;;109062;1254;58062;-70
2024/01/18 04:11:29;;;;;;;12.10;7.40;;;;;;;;;;109119;1253;57726;-70
2024/01/18 04:13:58;;;;;;;9.90;6.20;;;;;;;;;;108948;1254;58147;-71
2024/01/18 04:16:27;;;;;;;11.30;7.30;;;;;;;;;;109131;1253;58888;-71
2024/01/18 04:18:55;;;;;;;10.70;5.50;;;;;;;;;;109192;1254;58218;-70
2024/01/18 04:21:24;;;;;;;10.30;7.40;;;;;;;;;;108974;1253;58412;-70
2024/01/18 04:23:55;;;;;;;15.10;7.10;;;;;;;;;;109000;1254;58221;-70
2024/01/18 04:26:25;;;;;;;10.60;6.90;;;;;;;;;;109175;1253;58382;-71
2024/01/18 04:28:53;;;;;;;12.40;7.30;;;;;;;;;;109154;1253;58231;-72
2024/01/18 04:31:21;;;;;;;10.30;6.80;;;;;;;;;;108942;1254;59362;-72
2024/01/18 04:33:50;;;;;;;13.80;7.50;;;;;;;;;;109176;1252;58197;-71
2024/01/18 04:36:19;;;;;;;12.90;7.80;;;;;;;;;;109240;1252;58212;-70
2024/01/18 04:38:48;;;;;;;11.60;8.00;;;;;;;;;;109039;1256;58040;-71
2024/01/18 04:41:17;;;;;;;14.90;8.00;;;;;;;;;;109169;1252;58210;-71
2024/01/18 04:43:45;;;;;;;16.80;9.60;;;;;;;;;;109108;1253;58400;-71
2024/01/18 04:46:14;;;;;;;13.00;8.40;;;;;;;;;;109146;1253;57810;-71
2024/01/18 04:48:44;;;;;;;11.90;7.60;;;;;;;;;;109156;1254;58536;-71
2024/01/18 04:51:13;;;;;;;12.90;7.80;;;;;;;;;;108955;1254;58189;-71
2024/01/18 04:53:41;;;;;;;12.80;7.40;;;;;;;;;;108909;1254;58551;-69
2024/01/18 04:56:10;;;;;;;11.20;7.80;;;;;;;;;;109089;1254;58134;-69
2024/01/18 04:58:38;;;;;;;13.30;7.90;;;;;;;;;;108934;1253;58624;-70
2024/01/18 05:01:10;;;;;;;16.20;8.60;;;;;;;;;;108988;1253;58691;-79
2024/01/18 05:03:39;;;;;;;16.30;8.80;;;;;;;;;;109089;1254;58328;-71
2024/01/18 05:06:09;;;;;;;16.70;9.10;;;;;;;;;;109042;1254;58290;-74
2024/01/18 05:08:37;;;;;;;16.10;8.20;;;;;;;;;;109131;1252;59781;-73
2024/01/18 05:11:06;;;;;;;12.90;7.90;;;;;;;;;;108923;1256;58320;-74
2024/01/18 05:13:35;;;;;;;17.00;8.90;;;;;;;;;;108924;1254;58326;-74
2024/01/18 05:16:04;;;;;;;12.40;7.90;;;;;;;;;;109041;1254;59964;-73
2024/01/18 05:18:32;;;;;;;11.90;7.40;;;;;;;;;;109135;1253;58168;-72
2024/01/18 05:21:01;;;;;;;10.20;7.00;;;;;;;;;;109173;1253;58058;-72
2024/01/18 05:23:29;;;;;;;10.70;7.60;;;;;;;;;;108946;1254;58353;-73
2024/01/18 05:25:58;;;;;;;11.90;8.10;;;;;;;;;;109134;1253;58251;-75
2024/01/18 05:28:26;;;;;;;12.30;7.70;;;;;;;;;;109157;1253;58171;-73
2024/01/18 05:30:57;;;;;;;13.60;8.20;;;;;;;;;;109039;1254;58148;-73
2024/01/18 05:33:25;;;;;;;14.90;9.10;;;;;;;;;;108874;1254;57863;-74
2024/01/18 05:35:54;;;;;;;12.10;7.70;;;;;;;;;;109027;1254;58155;-72
2024/01/18 05:38:22;;;;;;;12.80;8.30;;;;;;;;;;108927;1254;58098;-73
2024/01/18 05:40:50;;;;;;;12.50;7.80;;;;;;;;;;108978;1254;57716;-73
2024/01/18 05:43:19;;;;;;;10.70;7.30;;;;;;;;;;109009;1253;57824;-73
2024/01/18 05:45:48;;;;;;;12.70;8.70;;;;;;;;;;109077;1253;57773;-73
2024/01/18 05:48:16;;;;;;;11.90;7.60;;;;;;;;;;109098;1253;58233;-73
2024/01/18 05:50:45;;;;;;;11.40;7.20;;;;;;;;;;109020;1253;58287;-73
2024/01/18 05:53:13;;;;;;;13.30;7.50;;;;;;;;;;108959;1253;58774;-74
2024/01/18 05:55:42;;;;;;;14.10;8.30;;;;;;;;;;108892;1254;58176;-73
2024/01/18 05:58:10;;;;;;;13.60;8.00;;;;;;;;;;108919;1253;58187;-73
2024/01/18 06:00:39;;;;;;;14.20;8.00;;;;;;;;;;108865;1254;58453;-72
2024/01/18 06:03:08;;;;;;;14.40;8.00;;;;;;;;;;108882;1254;58238;-73
2024/01/18 06:05:37;;;;;;;13.00;7.80;;;;;;;;;;108857;1254;58648;-73
2024/01/18 06:08:06;;;;;;;15.70;8.20;;;;;;;;;;108814;1254;58213;-73
2024/01/18 06:10:34;;;;;;;12.60;7.90;;;;;;;;;;108662;1254;57798;-72
2024/01/18 06:13:03;;;;;;;13.00;8.00;;;;;;;;;;108691;1254;58199;-73
2024/01/18 06:15:31;;;;;;;11.70;7.60;;;;;;;;;;108684;1254;59652;-73
2024/01/18 06:18:03;;;;;;;12.20;7.80;;;;;;;;;;108835;1254;57708;-76
2024/01/18 06:20:32;;;;;;;14.00;8.60;;;;;;;;;;108669;1252;58334;-72
2024/01/18 06:23:01;;;;;;;13.50;8.80;;;;;;;;;;109064;1252;58293;-73
2024/01/18 06:25:30;;;;;;;13.70;8.40;;;;;;;;;;108806;1256;58398;-74
2024/01/18 06:27:58;;;;;;;14.30;8.00;;;;;;;;;;109072;1252;58425;-74
2024/01/18 06:30:27;;;;;;;15.50;8.50;;;;;;;;;;108900;1252;59605;-77
2024/01/18 06:32:56;;;;;;;15.10;8.30;;;;;;;;;;109185;1253;58164;-75
2024/01/18 06:35:24;;;;;;;12.20;7.90;;;;;;;;;;109011;1252;57758;-74
2024/01/18 06:37:53;;;;;;;17.30;8.10;;;;;;;;;;108981;1252;58142;-73
2024/01/18 06:40:21;;;;;;;12.50;8.20;;;;;;;;;;108825;1252;57840;-84
2024/01/18 06:42:50;;;;;;;14.80;8.30;;;;;;;;;;109171;1252;57811;-78
2024/01/18 06:45:19;;;;;;;13.60;8.90;;;;;;;;;;109189;1252;59533;-83
2024/01/18 06:47:47;;;;;;;14.80;9.10;;;;;;;;;;109016;1252;58209;-74
2024/01/18 06:50:16;;;;;;;12.80;8.10;;;;;;;;;;109042;1254;57713;-75
2024/01/18 06:52:44;;;;;;;17.40;9.00;;;;;;;;;;108963;1254;58833;-77
2024/01/18 06:55:13;;;;;;;14.30;8.30;;;;;;;;;;108949;1254;58355;-76
2024/01/18 06:57:45;;;;;;;13.80;8.30;;;;;;;;;;108837;1254;58278;-75
2024/01/18 07:00:16;;;;;;;14.10;8.30;;;;;;;;;;108824;1254;60143;-75
2024/01/18 07:02:44;;;;;;;13.40;8.80;;;;;;;;;;108811;1254;58234;-76
2024/01/18 07:05:13;;;;;;;15.70;9.00;;;;;;;;;;109017;1254;57673;-75
2024/01/18 07:07:42;;;;;;;13.10;9.80;;;;;;;;;;108891;1254;58611;-76
2024/01/18 07:10:10;;;;;;;15.10;8.70;;;;;;;;;;108895;1254;58335;-77
2024/01/18 07:12:39;;;;;;;16.80;9.50;;;;;;;;;;108795;1254;57964;-75
2024/01/18 07:15:08;;;;;;;13.00;8.80;;;;;;;;;;108989;1254;59465;-76
2024/01/18 07:17:37;;;;;;;15.40;9.00;;;;;;;;;;108989;1254;58346;-75
2024/01/18 07:20:06;;;;;;;14.50;9.70;;;;;;;;;;108717;1254;58240;-75
2024/01/18 07:22:35;;;;;;;14.50;9.10;;;;;;;;;;108806;1254;58366;-75
2024/01/18 07:25:05;;;;;;;18.60;9.60;;;;;;;;;;108951;1254;58173;-77
2024/01/18 07:27:34;;;;;;;15.40;9.50;;;;;;;;;;108974;1254;58216;-76
2024/01/18 07:30:03;;;;;;;17.50;9.30;;;;;;;;;;108991;1254;59457;-77
2024/01/18 07:32:33;;;;;;;14.40;9.10;;;;;;;;;;108972;1254;58152;-76
2024/01/18 07:35:02;;;;;;;14.50;9.20;;;;;;;;;;109011;1254;58242;-74
2024/01/18 07:37:30;;;;;;;17.10;9.30;;;;;;;;;;108994;1254;58297;-75
2024/01/18 07:39:59;;;;;;;15.00;8.60;;;;;;;;;;108973;1256;58337;-75
2024/01/18 07:42:27;;;;;;;15.10;9.10;;;;;;;;;;108741;1254;57896;-75
2024/01/18 07:44:56;;;;;;;14.80;9.70;;;;;;;;;;108722;1254;57851;-74
2024/01/18 07:47:25;;;;;;;14.60;10.00;;;;;;;;;;108853;1254;57802;-75
2024/01/18 07:49:54;;;;;;;13.10;8.90;;;;;;;;;;108747;1254;57766;-75
2024/01/18 07:52:22;;;;;;;15.50;10.40;;;;;;;;;;108877;1254;58777;-75
2024/01/18 07:54:51;;;;;;;16.40;9.60;;;;;;;;;;108868;1254;57748;-75
2024/01/18 07:57:19;;;;;;;13.90;8.90;;;;;;;;;;108762;1254;58325;-76
2024/01/18 07:59:48;;;;;;;16.50;9.90;;;;;;;;;;108961;1255;57765;-76
2024/01/18 08:02:16;;;;;;;16.10;10.40;;;;;;;;;;108992;1254;57697;-77
2024/01/18 08:04:45;;;;;;;15.90;10.30;;;;;;;;;;108957;1255;57782;-74
2024/01/18 08:07:15;;;;;;;19.60;11.90;;;;;;;;;;108946;1254;57848;-75
2024/01/18 08:09:43;;;;;;;19.20;11.30;;;;;;;;;;109016;1256;58194;-79
2024/01/18 08:12:12;;;;;;;20.00;10.50;;;;;;;;;;108843;1254;58452;-77
2024/01/18 08:14:41;;;;;;;19.40;11.50;;;;;;;;;;109002;1254;58437;-76
2024/01/18 08:17:10;;;;;;;18.10;10.70;;;;;;;;;;109007;1254;58408;-76
2024/01/18 08:19:39;;;;;;;18.80;11.30;;;;;;;;;;109023;1254;58196;-76
2024/01/18 08:22:10;;;;;;;16.20;11.00;;;;;;;;;;108953;1255;57833;-77
2024/01/18 08:24:39;;;;;;;16.20;10.90;;;;;;;;;;108697;1256;58399;-76
2024/01/18 08:27:08;;;;;;;21.20;12.00;;;;;;;;;;108860;1254;58343;-77
2024/01/18 08:29:37;;;;;;;20.00;10.90;;;;;;;;;;108718;1254;59181;-76
2024/01/18 08:32:06;;;;;;;23.70;12.40;;;;;;;;;;108856;1254;57780;-78
2024/01/18 08:34:35;;;;;;;19.70;12.40;;;;;;;;;;108693;1254;57879;-75
2024/01/18 08:37:04;;;;;;;20.10;12.50;;;;;;;;;;108830;1254;58633;-76
2024/01/18 08:39:33;;;;;;;18.00;12.00;;;;;;;;;;108859;1254;58346;-75
2024/01/18 08:42:02;;;;;;;19.00;12.40;;;;;;;;;;108873;1254;57745;-75
2024/01/18 08:44:31;;;;;;;20.80;12.70;;;;;;;;;;108864;1256;57811;-76
2024/01/18 08:46:59;;;;;;;19.90;12.40;;;;;;;;;;108682;1254;58198;-76
2024/01/18 08:49:28;;;;;;;20.20;12.90;;;;;;;;;;108846;1256;58323;-76
2024/01/18 08:51:57;;;;;;;19.80;12.20;;;;;;;;;;108772;1254;58416;-76
2024/01/18 08:54:25;;;;;;;20.10;12.80;;;;;;;;;;108701;1258;58378;-75
2024/01/18 08:56:54;;;;;;;22.20;15.00;;;;;;;;;;108856;1256;57747;-76
2024/01/18 08:59:25;;;;;;;23.80;14.80;;;;;;;;;;108853;1254;59776;-75
2024/01/18 09:01:55;;;;;;;25.60;15.00;;;;;;;;;;108831;1254;58232;-75
2024/01/18 09:04:25;;;;;;;23.80;14.30;;;;;;;;;;108809;1254;57843;-75
2024/01/18 09:06:55;;;;;;;31.70;14.90;;;;;;;;;;108827;1254;58147;-75
2024/01/18 09:09:23;;;;;;;25.60;14.50;;;;;;;;;;108828;1254;58441;-75
2024/01/18 09:11:52;;;;;;;26.50;14.00;;;;;;;;;;108825;1254;57679;-75
2024/01/18 09:14:21;;;;;;;22.10;13.80;;;;;;;;;;108858;1256;58205;-76
2024/01/18 09:16:50;;;;;;;21.50;13.50;;;;;;;;;;108883;1254;57813;-76
2024/01/18 09:19:18;;;;;;;21.50;12.90;;;;;;;;;;108854;1254;57792;-75
2024/01/18 09:21:47;;;;;;;22.00;13.50;;;;;;;;;;108848;1254;58148;-75
2024/01/18 09:24:15;;;;;;;18.70;12.40;;;;;;;;;;108841;1256;57814;-76
2024/01/18 09:26:44;;;;;;;22.70;14.00;;;;;;;;;;108683;1256;57786;-76
2024/01/18 09:29:13;;;;;;;20.50;13.30;;;;;;;;;;108765;1254;58348;-76
2024/01/18 09:31:41;;;;;;;24.20;13.90;;;;;;;;;;108833;1254;57823;-76
2024/01/18 09:34:10;;;;;;;22.30;13.80;;;;;;;;;;108859;1254;58302;-78
2024/01/18 09:36:39;;;;;;;32.40;18.10;;;;;;;;;;108788;1256;58258;-76
2024/01/18 09:39:15;;;;;;;25.50;15.50;;;;;;;;;;108699;1255;58329;-75
2024/01/18 09:41:52;;;;;;;28.00;18.00;;;;;;;;;;108863;1254;57691;-76
2024/01/18 09:44:30;;;;;;;31.60;19.50;;;;;;;;;;108725;1254;58926;-75
2024/01/18 09:47:01;;;;;;;24.10;14.70;;;;;;;;;;108823;1254;57751;-75
2024/01/18 09:49:32;;;;;;;38.50;23.10;;;;;;;;;;108666;1256;58248;-77
2024/01/18 09:52:00;;;;;;;27.00;16.20;;;;;;;;;;108658;1254;57996;-75
2024/01/18 09:54:29;;;;;;;32.00;19.00;;;;;;;;;;108819;1254;58444;-77
2024/01/18 09:57:00;;;;;;;19.60;14.30;;;;;;;;;;108862;1256;58276;-75
2024/01/18 09:59:29;;;;;;;25.00;14.30;;;;;;;;;;108640;1254;58353;-75
2024/01/18 10:01:58;;;;;;;44.10;23.00;;;;;;;;;;108653;1254;58270;-75
2024/01/18 10:04:27;;;;;;;24.80;16.60;;;;;;;;;;108727;1257;58126;-75
2024/01/18 10:06:56;;;;;;;26.50;15.10;;;;;;;;;;108652;1254;58907;-75
2024/01/18 10:09:28;;;;;;;23.20;14.90;;;;;;;;;;108848;1256;58289;-76
2024/01/18 10:11:56;;;;;;;29.40;16.90;;;;;;;;;;108856;1253;57785;-76
2024/01/18 10:14:41;;;;;;;27.80;17.60;;;;;;;;;;108830;1254;60029;-76
2024/01/18 10:17:19;;;;;;;24.50;14.90;;;;;;;;;;108861;1254;57727;-76
2024/01/18 10:20:00;;;;;;;22.70;14.20;;;;;;;;;;108859;1254;58474;-75
2024/01/18 10:22:29;;;;;;;35.80;16.00;;;;;;;;;;108687;1256;58335;-76
2024/01/18 10:24:58;;;;;;;21.90;14.60;;;;;;;;;;108845;1256;58312;-76
2024/01/18 10:27:28;;;;;;;24.10;14.60;;;;;;;;;;108671;1254;58209;-75
2024/01/18 10:29:57;;;;;;;24.30;15.50;;;;;;;;;;108673;1254;57741;-75
2024/01/18 10:32:31;;;;;;;23.70;14.80;;;;;;;;;;108832;1254;58244;-77
2024/01/18 10:35:00;;;;;;;23.00;14.00;;;;;;;;;;108871;1256;58362;-77
2024/01/18 10:37:32;;;;;;;24.80;15.20;;;;;;;;;;108819;1256;57803;-76
2024/01/18 10:40:02;;;;;;;24.10;14.50;;;;;;;;;;108826;1256;57841;-77
2024/01/18 10:42:32;;;;;;;22.70;14.40;;;;;;;;;;108876;1256;58256;-77
2024/01/18 10:45:01;;;;;;;23.80;16.70;;;;;;;;;;108822;1254;59248;-76
2024/01/18 10:47:30;;;;;;;22.00;14.00;;;;;;;;;;108835;1254;58283;-76
2024/01/18 10:49:59;;;;;;;22.90;14.10;;;;;;;;;;108850;1256;58477;-77
2024/01/18 10:52:28;;;;;;;23.90;13.90;;;;;;;;;;108666;1256;58248;-75
2024/01/18 10:54:58;;;;;;;23.50;14.70;;;;;;;;;;108691;1258;57928;-75
2024/01/18 10:57:36;;;;;;;22.30;14.90;;;;;;;;;;108470;1258;406067;-75
2024/01/18 11:00:08;;;;;;;21.70;14.10;;;;;;;;;;108882;1254;58775;-74
2024/01/18 11:02:40;;;;;;;23.10;14.80;;;;;;;;;;108978;1254;58160;-76
2024/01/18 11:05:09;;;;;;;23.50;14.50;;;;;;;;;;108800;1254;57861;-76
2024/01/18 11:07:39;;;;;;;24.50;14.80;;;;;;;;;;108962;1254;58251;-76
2024/01/18 11:10:12;;;;;;;25.20;14.10;;;;;;;;;;108702;1256;57855;-77
2024/01/18 11:12:43;;;;;;;26.00;15.30;;;;;;;;;;108724;1254;58213;-77
2024/01/18 11:15:14;;;;;;;24.40;14.90;;;;;;;;;;108688;1256;59904;-76
2024/01/18 11:17:45;;;;;;;20.90;13.00;;;;;;;;;;108671;1254;57853;-76
2024/01/18 11:20:14;;;;;;;20.90;14.00;;;;;;;;;;108670;1254;58331;-75
2024/01/18 11:22:42;;;;;;;21.10;13.60;;;;;;;;;;108601;1255;58797;-75
2024/01/18 11:25:17;;;;;;;19.90;14.00;;;;;;;;;;108688;1256;58380;-75
2024/01/18 11:27:45;;;;;;;20.30;13.50;;;;;;;;;;108827;1254;57840;-76
2024/01/18 11:30:32;;;;;;;21.30;14.50;;;;;;;;;;108848;1254;58426;-76
2024/01/18 11:33:02;;;;;;;21.90;13.60;;;;;;;;;;108877;1254;58270;-76
2024/01/18 11:35:31;;;;;;;21.00;13.70;;;;;;;;;;108852;1254;58665;-75
2024/01/18 11:38:23;;;;;;;21.60;14.80;;;;;;;;;;108828;1254;59186;-75
2024/01/18 11:41:19;;;;;;;24.60;14.80;;;;;;;;;;108838;1256;57906;-76
2024/01/18 11:43:56;;;;;;;25.20;15.50;;;;;;;;;;108625;1254;58252;-76
2024/01/18 11:46:38;;;;;;;25.20;15.30;;;;;;;;;;108833;1254;58135;-75
2024/01/18 11:49:07;;;;;;;22.20;15.60;;;;;;;;;;108609;1254;58560;-76
2024/01/18 11:51:36;;;;;;;27.70;15.70;;;;;;;;;;108702;1254;58373;-76
2024/01/18 11:54:06;;;;;;;23.60;15.30;;;;;;;;;;108801;1254;58150;-76
2024/01/18 11:56:36;;;;;;;22.80;15.30;;;;;;;;;;108951;1254;57825;-76
2024/01/18 11:59:05;;;;;;;22.80;14.90;;;;;;;;;;108859;1254;58165;-76
2024/01/18 12:01:33;;;;;;;23.20;14.90;;;;;;;;;;109023;1254;59574;-75
2024/01/18 12:04:02;;;;;;;26.70;16.30;;;;;;;;;;108786;1254;58241;-76
2024/01/18 12:06:30;;;;;;;22.50;14.80;;;;;;;;;;109025;1254;57857;-76
2024/01/18 12:08:59;;;;;;;23.50;15.00;;;;;;;;;;108975;1254;58490;-76
2024/01/18 12:11:28;;;;;;;22.60;14.70;;;;;;;;;;108834;1256;58307;-76
2024/01/18 12:13:56;;;;;;;20.60;13.90;;;;;;;;;;108896;1255;57767;-76
2024/01/18 12:16:25;;;;;;;21.00;13.60;;;;;;;;;;108836;1254;58300;-78
2024/01/18 12:18:54;;;;;;;23.60;14.50;;;;;;;;;;109016;1254;57833;-76
2024/01/18 12:21:23;;;;;;;21.70;14.50;;;;;;;;;;108948;1253;58259;-76
2024/01/18 12:23:54;;;;;;;22.10;14.80;;;;;;;;;;109013;1254;58222;-76
2024/01/18 12:26:23;;;;;;;21.70;14.10;;;;;;;;;;108985;1256;58302;-77
2024/01/18 12:28:51;;;;;;;25.60;15.40;;;;;;;;;;108887;1254;57683;-76
2024/01/18 12:31:20;;;;;;;22.80;14.90;;;;;;;;;;108905;1254;58519;-78
2024/01/18 12:33:49;;;;;;;25.40;15.80;;;;;;;;;;109060;1256;58228;-75
2024/01/18 12:36:17;;;;;;;22.40;14.40;;;;;;;;;;108998;1254;58311;-76
2024/01/18 12:38:46;;;;;;;25.90;15.90;;;;;;;;;;108855;1254;57914;-75
2024/01/18 12:41:14;;;;;;;27.70;16.40;;;;;;;;;;108991;1256;58218;-74
2024/01/18 12:43:43;;;;;;;24.90;15.00;;;;;;;;;;109046;1254;58232;-76
2024/01/18 12:46:11;;;;;;;25.20;15.30;;;;;;;;;;109025;1254;59760;-75
2024/01/18 12:48:40;;;;;;;21.10;14.50;;;;;;;;;;109009;1254;58446;-75
2024/01/18 12:51:09;;;;;;;22.10;13.40;;;;;;;;;;109014;1254;58222;-76
2024/01/18 12:53:37;;;;;;;22.80;14.60;;;;;;;;;;108908;1254;58913;-76
2024/01/18 12:56:10;;;;;;;20.10;14.40;;;;;;;;;;108896;1258;58236;-77
2024/01/18 12:58:41;;;;;;;24.10;14.70;;;;;;;;;;109030;1254;58198;-76
2024/01/18 13:01:09;;;;;;;25.90;14.60;;;;;;;;;;109051;1254;58640;-76
2024/01/18 13:03:38;;;;;;;24.60;15.30;;;;;;;;;;109023;1253;57796;-76
2024/01/18 13:06:07;;;;;;;25.10;14.10;;;;;;;;;;109036;1254;57753;-77
2024/01/18 13:08:37;;;;;;;21.00;14.00;;;;;;;;;;109026;1254;59344;-79
2024/01/18 13:11:07;;;;;;;20.50;15.00;;;;;;;;;;109042;1254;58232;-77
2024/01/18 13:13:35;;;;;;;26.00;15.90;;;;;;;;;;108885;1254;58647;-76
2024/01/18 13:16:04;;;;;;;26.00;15.40;;;;;;;;;;108939;1254;60177;-78
2024/01/18 13:18:35;;;;;;;23.80;15.30;;;;;;;;;;109126;1253;58249;-75
2024/01/18 13:21:05;;;;;;;23.80;15.90;;;;;;;;;;109141;1253;57719;-76
2024/01/18 13:23:33;;;;;;;25.30;15.60;;;;;;;;;;108974;1253;58300;-76
2024/01/18 13:26:02;;;;;;;27.20;15.60;;;;;;;;;;109156;1254;57749;-77
2024/01/18 13:28:31;;;;;;;25.40;15.30;;;;;;;;;;108996;1253;58213;-75
2024/01/18 13:30:59;;;;;;;27.30;15.30;;;;;;;;;;109168;1253;58305;-76
2024/01/18 13:33:28;;;;;;;25.40;16.20;;;;;;;;;;108986;1254;58231;-76
2024/01/18 13:35:57;;;;;;;24.10;15.20;;;;;;;;;;108999;1254;57848;-73
2024/01/18 13:38:26;;;;;;;28.50;16.80;;;;;;;;;;109123;1253;58855;-75
2024/01/18 13:40:54;;;;;;;28.00;15.40;;;;;;;;;;109111;1253;58099;-75
2024/01/18 13:43:23;;;;;;;25.40;16.10;;;;;;;;;;109112;1253;58236;-75
2024/01/18 13:45:51;;;;;;;24.90;14.90;;;;;;;;;;109169;1253;59481;-76
2024/01/18 13:48:20;;;;;;;31.00;17.20;;;;;;;;;;109129;1253;57764;-76
2024/01/18 13:50:48;;;;;;;28.80;16.20;;;;;;;;;;109117;1253;58156;-76
2024/01/18 13:53:18;;;;;;;27.50;16.50;;;;;;;;;;108951;1253;58285;-77
2024/01/18 13:55:46;;;;;;;26.40;16.50;;;;;;;;;;109101;1253;58355;-76
2024/01/18 13:58:15;;;;;;;28.10;18.20;;;;;;;;;;108930;1253;57797;-76
2024/01/18 14:00:44;;;;;;;29.00;16.60;;;;;;;;;;108898;1254;59210;-75
2024/01/18 14:03:12;;;;;;;51.30;29.80;;;;;;;;;;108954;1254;58341;-76
2024/01/18 14:05:45;;;;;;;40.00;23.00;;;;;;;;;;109081;1253;58314;-75
2024/01/18 14:08:14;;;;;;;30.10;19.10;;;;;;;;;;108923;1256;57762;-76
2024/01/18 14:10:43;;;;;;;26.30;17.10;;;;;;;;;;109100;1255;57928;-75
2024/01/18 14:13:11;;;;;;;27.70;17.00;;;;;;;;;;109152;1254;57886;-75
2024/01/18 14:15:40;;;;;;;26.90;17.50;;;;;;;;;;109094;1254;58363;-76
2024/01/18 14:18:10;;;;;;;25.60;16.40;;;;;;;;;;109123;1253;57843;-75
2024/01/18 14:20:39;;;;;;;27.00;17.50;;;;;;;;;;109114;1254;58193;-75
2024/01/18 14:23:07;;;;;;;27.30;16.50;;;;;;;;;;109088;1253;58278;-76
2024/01/18 14:25:35;;;;;;;29.70;18.30;;;;;;;;;;109085;1255;57782;-75